x

Central Aleutians 230nm Sw Dutch Harbor (46072) Wave Buoy

2:50pm - Tue 22nd Jul 2014 All times are UTC.

  • Sig Wave height 4.3ft
  • Peak Period 7s
  • Average Period 5s
  • Wind
    13mph, 16mph gusts
  • Sea Temp 53°f
  • Air Temp 51°f
  • Sea Pressure 1020.1mb

More Historic Weather Station data

Upgrade to MSW Pro to gain access to the past 30 days of data for over 8000 Wavebouys and Weather Stations around the globe.

Join Pro

Comparision Forecast

View Surf forecast
   
Tue 07/22 2:50pm 4.5ft 7s 5s 13 16 mph 1020.1mb 53f 51f
1:50pm 4.5ft 7s 5s 11 13 mph 1019.9mb 53f 52f
12:50pm 5ft 7s 6s 11 13 mph 1019.7mb 53f 52f
11:50am 5ft 7s 6s 11 16 mph 1019.4mb 53f 52f
10:50am 5ft 6s 6s 11 16 mph 1019.1mb 53f 51f
9:50am 5ft 6s 6s 9 11 mph 1018.8mb 53f 52f
8:50am 5.5ft 8s 5s 9 11 mph 1018.4mb 53f 52f
7:50am 5ft 8s 5s 11
mph
1018mb 53f 52f
6:50am 5ft 7s 5s 13 18 mph 1017.5mb 53f 52f
5:50am 5ft 7s 5s 13 16 mph 1017.1mb 53f 52f
4:50am 4.5ft 6s 5s 13 16 mph 1017mb 53f 51f
3:50am 4.5ft 6s 5s 13 16 mph 1016.9mb 53f 51f
2:50am 4.5ft 8s 5s 16 18 mph 1017.1mb 53f 52f
1:50am 4.5ft 6s 5s 16 18 mph 1017.2mb 53f 52f
12:50am 3.5ft 6s 5s 13 18 mph 1017.3mb 53f 52f
Mon 07/21 11:50pm 3.5ft 6s 4s 16 18 mph 1017.3mb 53f 52f
10:50pm 3.5ft 8s 5s 13 16 mph 1017mb 53f 52f
9:50pm 4ft 8s 5s 13 16 mph 1017mb 53f 52f
8:50pm 4.5ft 13s 5s 13 18 mph 1016.9mb 53f 52f
7:50pm 4.5ft 8s 5s 16 18 mph 1017mb 53f 51f
6:50pm 4.5ft 5s 5s 13 18 mph 1016.9mb 53f 51f
5:50pm 4ft 7s 4s 16 18 mph 1017mb 53f 52f
4:50pm 5ft 5s 5s 16 18 mph 1017mb 53f 52f
3:50pm 5ft 5s 5s 13 16 mph 1017mb 53f 52f
2:50pm 5ft 6s 5s 13 18 mph 1017.1mb 53f 51f
1:50pm 5ft 6s 5s 16 18 mph 1017.3mb 53f 52f
12:50pm 4.5ft 6s 5s 18 20 mph 1017.5mb 53f 51f
11:50am 5ft 6s 5s 13 18 mph 1017.6mb 53f 52f
10:50am 5ft 6s 5s 13 16 mph 1017.7mb 53f 51f
9:50am 5ft 5s 5s 18 22 mph 1017.6mb 53f 51f
8:50am 4.5ft 5s 5s 20 25 mph 1017.2mb 53f 51f
7:50am 4.5ft 6s 5s 20 22 mph 1016.8mb 53f 50f
6:50am 4ft 6s 4s 20 25 mph 1016.3mb 53f 51f
5:50am 4.5ft 7s 5s 18 20 mph 1015.9mb 53f 52f
4:50am 5ft 7s 5s 11 13 mph 1015.9mb 53f 52f
3:50am 4.5ft 5s 5s 9 11 mph 1016mb 53f 52f
2:50am 5ft 6s 5s 13 16 mph 1016.2mb 53f 52f
1:50am 4.5ft 6s 5s 16 18 mph 1016.6mb 53f 52f
12:50am 5ft 9s 5s 16 18 mph 1017mb 53f 52f
Sun 07/20 11:50pm 5.5ft 9s 5s 16 20 mph 1017.5mb 53f 51f
10:50pm 5ft 5s 4s 20 25 mph 1017.8mb 53f 51f
9:50pm 5ft 9s 4s 20 25 mph 1018.2mb 53f 51f
8:50pm 4.5ft 9s 5s 20 22 mph 1018.7mb 53f 51f
7:50pm 5ft 9s 5s 18 20 mph 1019.3mb 53f 51f
6:50pm 4.5ft 14s 5s 18 20 mph 1019.4mb 53f 51f
5:50pm 5ft 9s 5s 18 20 mph 1019.6mb 53f 51f
4:50pm 5ft 9s 5s 16 18 mph 1019.8mb 53f 51f
3:50pm 4.5ft 9s 5s 16 20 mph 1019.5mb 53f 51f
2:50pm 4.5ft 9s 5s 13 16 mph 1020.4mb 53f 51f
1:50pm 4.5ft 9s 5s 11 13 mph 1020.7mb 52f 51f
12:50pm 4.5ft 9s 6s 11 13 mph 1021.3mb 52f 51f
11:50am 4.5ft 10s 6s 13 16 mph 1021.1mb 52f 51f
10:50am 4.5ft 10s 6s 13 16 mph 1021.4mb 52f 50f
9:50am 4.5ft 10s 7s 11 13 mph 1021.6mb 53f 50f
8:50am 4ft 10s 7s 9 11 mph 1022.2mb 53f 50f
7:50am 4.5ft 10s 8s 9 13 mph 1021.7mb 53f 50f
6:50am 4ft 10s 8s 9 11 mph 1021.6mb 52f 50f
5:50am 4ft 10s 8s 7 11 mph 1022.1mb 53f 50f
4:50am 4ft 11s 8s 7 9 mph 1021.9mb 53f 50f
3:50am 4ft 8s 7s 4 9 mph 1022mb 53f 50f
2:50am 4ft 11s 7s 7 9 mph 1022.2mb 52f 50f
1:50am 4ft 8s 8s 7 9 mph 1022.2mb 52f 51f
12:50am 5ft 10s 9s 9
mph
1022.8mb 52f 51f
Sat 07/19 11:50pm 4.5ft 9s 8s 4 7 mph 1022.7mb 53f 51f
10:50pm 4ft 11s 8s 7 9 mph 1022.8mb 53f 51f
9:50pm 4ft 9s 8s 4
mph
1022.7mb 53f 51f
8:50pm 3.5ft 10s 8s 4 7 mph 1022.4mb 53f 51f
7:50pm 4ft 10s 8s 9 11 mph 1022.4mb 53f 51f
6:50pm 4ft 10s 8s 9 11 mph 1022.3mb 53f 51f
5:50pm 4ft 10s 8s 4 7 mph 1022mb 53f 51f
4:50pm 4ft 8s 7s 4 7 mph 1021.5mb 52f 50f
3:50pm 4ft 10s 6s 4 7 mph 1021.5mb 52f 51f
2:50pm 4ft 11s 6s 7 9 mph 1021.4mb 52f 51f
1:50pm 4.5ft 10s 7s 7 11 mph 1021.4mb 52f 51f
12:50pm 4ft 9s 6s 9 11 mph 1021.5mb 52f 51f
11:50am 4ft 14s 7s 7 9 mph 1021.6mb 52f 51f
10:50am 3.5ft 9s 7s 9 11 mph 1021.7mb 52f 51f
9:50am 4ft 10s 7s 4 7 mph 1021.4mb 52f 51f
8:50am 4.5ft 9s 7s 7 9 mph 1021.4mb 52f 51f
7:50am 4ft 9s 7s 9 11 mph 1021mb 53f 51f
6:50am 4.5ft 9s 7s 4 7 mph 1020.7mb 52f 51f
5:50am 4.5ft 9s 7s 9 11 mph 1020.7mb 52f 51f
4:50am 5ft 9s 7s 11 13 mph 1020.6mb 52f 51f
3:50am 4.5ft 10s 6s 11 13 mph 1020.6mb 53f 51f
2:50am 5ft 8s 6s 9 11 mph 1020.6mb 53f 51f
1:50am 5ft 9s 6s 9 11 mph 1020.7mb 53f 50f
12:50am 4ft 9s 6s 11 13 mph 1020.8mb 53f 50f
Fri 07/18 11:50pm 4.5ft 8s 6s 9 11 mph 1021.1mb 52f 50f
10:50pm 4ft 8s 6s 9 11 mph 1021.3mb 52f 50f
9:50pm 4ft 8s 7s 11 13 mph 1021.2mb 52f 50f
8:50pm 4ft 9s 8s 11 13 mph 1021.4mb 52f 50f
7:50pm 4.5ft 9s 8s 9 11 mph 1021.2mb 52f 50f
6:50pm 4.5ft 8s 8s 9 13 mph 1021mb 52f 50f
5:50pm 4.5ft 9s 7s 7 11 mph 1021.1mb 52f 50f
4:50pm 5ft 9s 7s 9 11 mph 1020.8mb 52f 50f